createdAt,value
2018-02-21T07:00:48.513Z,-1.10
2018-02-21T07:03:17.916Z,-1.10
2018-02-21T07:05:45.483Z,-1.10
2018-02-21T07:08:13.024Z,-1.10
2018-02-21T07:10:40.573Z,-1.10
2018-02-21T07:13:08.261Z,-1.10
2018-02-21T07:15:35.830Z,-1.00
2018-02-21T07:18:03.368Z,-1.00
2018-02-21T07:20:30.914Z,-0.90
2018-02-21T07:22:59.215Z,-1.10
2018-02-21T07:25:26.768Z,-1.10
2018-02-21T07:27:54.352Z,-1.10
2018-02-21T07:30:21.900Z,-1.10
2018-02-21T07:32:49.457Z,-1.00
2018-02-21T07:35:17.120Z,-1.00
2018-02-21T07:37:44.658Z,-1.10
2018-02-21T07:40:12.240Z,-1.10
2018-02-21T07:42:39.781Z,-1.20
2018-02-21T07:45:07.366Z,-1.10
2018-02-21T07:47:34.909Z,-1.30
2018-02-21T07:50:02.445Z,-1.20
2018-02-21T07:52:30.776Z,-1.10
2018-02-21T07:54:58.317Z,-1.10
2018-02-21T07:57:25.921Z,-1.00
2018-02-21T07:59:53.533Z,-1.00
2018-02-21T08:02:22.483Z,-0.90
2018-02-21T08:04:50.817Z,-1.00
2018-02-21T08:07:18.356Z,-1.00
2018-02-21T08:09:45.900Z,-1.00
2018-02-21T08:12:13.455Z,-0.90
2018-02-21T08:14:41.002Z,-0.80
2018-02-21T08:17:08.567Z,-0.80
2018-02-21T08:19:36.979Z,-0.80
2018-02-21T08:22:04.540Z,-0.80
2018-02-21T08:24:32.201Z,-0.70
2018-02-21T08:26:59.780Z,-0.60
2018-02-21T08:29:27.337Z,-0.70
2018-02-21T08:31:54.880Z,-0.80
2018-02-21T08:34:22.457Z,-0.90
2018-02-21T08:36:50.013Z,-0.90
2018-02-21T08:39:17.561Z,-0.80
2018-02-21T08:41:45.119Z,-0.80
2018-02-21T08:44:12.781Z,-0.80
2018-02-21T08:46:40.315Z,-0.70
2018-02-21T08:49:08.634Z,-0.50
2018-02-21T08:51:36.200Z,-0.50
2018-02-21T08:54:03.836Z,-0.40
2018-02-21T08:56:31.386Z,-0.40
2018-02-21T08:58:58.935Z,-0.50
2018-02-21T09:01:26.476Z,-0.30
2018-02-21T09:03:54.807Z,-0.30
2018-02-21T09:06:22.456Z,-0.30
2018-02-21T09:08:50.009Z,-0.30
2018-02-21T09:11:17.568Z,-0.20
2018-02-21T09:13:45.108Z,0.00
2018-02-21T09:16:13.436Z,0.10
2018-02-21T09:18:40.969Z,0.10
2018-02-21T09:21:08.529Z,0.10
2018-02-21T09:23:36.068Z,-0.10
2018-02-21T09:26:03.616Z,0.00
2018-02-21T09:28:32.051Z,-0.10
2018-02-21T09:30:59.606Z,0.10
2018-02-21T09:33:27.161Z,0.10
2018-02-21T09:35:54.695Z,0.10
2018-02-21T09:38:22.235Z,0.00
2018-02-21T09:40:49.812Z,-0.20
2018-02-21T09:43:17.376Z,-0.10
2018-02-21T09:45:44.908Z,0.00
2018-02-21T09:48:13.204Z,0.00
2018-02-21T09:50:40.765Z,0.00
2018-02-21T09:53:08.319Z,0.20
2018-02-21T09:55:36.623Z,0.30
2018-02-21T09:58:04.180Z,0.30
2018-02-21T10:00:32.732Z,0.20
2018-02-21T10:03:01.052Z,-0.10
2018-02-21T10:05:28.596Z,-0.10
2018-02-21T10:07:56.511Z,-0.20
2018-02-21T10:10:24.072Z,-0.30
2018-02-21T10:12:51.648Z,-0.30
2018-02-21T10:15:19.961Z,-0.10
2018-02-21T10:17:48.539Z,-0.10
2018-02-21T10:20:16.072Z,0.00
2018-02-21T10:22:44.409Z,0.00
2018-02-21T10:25:11.991Z,0.00
2018-02-21T10:27:40.313Z,-0.30
2018-02-21T10:30:07.983Z,-0.30
2018-02-21T10:32:35.597Z,-0.20
2018-02-21T10:35:03.116Z,-0.30
2018-02-21T10:37:30.696Z,-0.30
2018-02-21T10:39:58.256Z,-0.20
2018-02-21T10:42:26.566Z,-0.20
2018-02-21T10:44:54.895Z,-0.20
2018-02-21T10:47:23.204Z,-0.10
2018-02-21T10:49:50.765Z,-0.10
2018-02-21T10:52:18.389Z,-0.20
2018-02-21T10:54:46.754Z,0.50
2018-02-21T10:57:14.290Z,0.50
2018-02-21T10:59:42.603Z,0.90
2018-02-21T11:02:10.147Z,0.90
2018-02-21T11:04:37.684Z,0.70
2018-02-21T11:07:05.239Z,0.70
2018-02-21T11:09:33.534Z,0.50
2018-02-21T11:12:01.087Z,0.50
2018-02-21T11:14:30.511Z,0.30
2018-02-21T11:17:07.108Z,0.30
2018-02-21T11:19:34.698Z,0.30
2018-02-21T11:22:03.019Z,0.20
2018-02-21T11:24:30.566Z,0.20
2018-02-21T11:26:58.168Z,0.10
2018-02-21T11:29:26.487Z,0.10
2018-02-21T11:31:54.957Z,0.20
2018-02-21T11:34:23.374Z,0.30
2018-02-21T11:36:50.937Z,0.30
2018-02-21T11:39:18.470Z,0.30
2018-02-21T11:41:46.052Z,0.20
2018-02-21T11:44:13.583Z,0.10
2018-02-21T11:46:41.903Z,0.20
2018-02-21T11:49:09.431Z,0.20
2018-02-21T11:51:36.974Z,0.30
2018-02-21T11:54:05.272Z,0.30
2018-02-21T11:56:32.837Z,0.30
2018-02-21T11:59:00.375Z,0.30
2018-02-21T12:01:28.695Z,0.60
2018-02-21T12:03:56.248Z,0.60
2018-02-21T12:06:23.786Z,0.80
2018-02-21T12:08:51.339Z,0.80
2018-02-21T12:11:18.868Z,0.80
2018-02-21T12:13:46.428Z,0.90
2018-02-21T12:16:14.040Z,0.90
2018-02-21T12:18:41.597Z,0.90
2018-02-21T12:21:09.139Z,0.90
2018-02-21T12:23:36.702Z,0.80
2018-02-21T12:26:04.247Z,0.90
2018-02-21T12:28:31.807Z,0.70
2018-02-21T12:31:00.126Z,0.80
2018-02-21T12:33:27.696Z,0.80
2018-02-21T12:35:55.231Z,0.90
2018-02-21T12:38:22.767Z,0.90
2018-02-21T12:40:56.778Z,1.00
2018-02-21T12:43:25.077Z,1.00
2018-02-21T12:45:52.625Z,1.00
2018-02-21T12:48:20.160Z,1.10
2018-02-21T12:50:48.476Z,1.30
2018-02-21T12:53:16.015Z,1.30
2018-02-21T12:55:43.669Z,1.30
2018-02-21T12:58:11.965Z,1.30
2018-02-21T13:00:39.507Z,1.20
2018-02-21T13:03:07.064Z,1.20
2018-02-21T13:05:35.371Z,1.40
2018-02-21T13:08:02.929Z,1.40
2018-02-21T13:10:30.496Z,1.50
2018-02-21T13:12:58.033Z,1.50
2018-02-21T13:15:25.588Z,1.50
2018-02-21T13:17:53.159Z,1.50
2018-02-21T13:20:20.696Z,1.60
2018-02-21T13:22:49.008Z,1.80
2018-02-21T13:25:17.360Z,1.80
2018-02-21T13:27:44.900Z,1.80
2018-02-21T13:30:13.221Z,1.80
2018-02-21T13:32:40.773Z,1.80
2018-02-21T13:35:08.324Z,1.90
2018-02-21T13:37:35.965Z,1.90
2018-02-21T13:40:04.284Z,1.80
2018-02-21T13:42:31.825Z,1.80
2018-02-21T13:44:59.372Z,1.80
2018-02-21T13:47:27.856Z,1.90
2018-02-21T13:49:55.496Z,2.00
2018-02-21T13:52:23.837Z,2.10
2018-02-21T13:54:51.387Z,2.10
2018-02-21T13:57:18.933Z,2.20
2018-02-21T13:59:46.476Z,2.10
2018-02-21T14:02:14.023Z,2.10
2018-02-21T14:04:42.345Z,2.10
2018-02-21T14:07:09.879Z,2.10
2018-02-21T14:09:37.419Z,2.20
2018-02-21T14:12:05.827Z,2.20
2018-02-21T14:14:33.356Z,2.20
2018-02-21T14:17:01.663Z,2.20
2018-02-21T14:19:29.217Z,2.20
2018-02-21T14:21:57.279Z,2.30
2018-02-21T14:24:24.823Z,2.20
2018-02-21T14:26:53.152Z,2.20
2018-02-21T14:29:20.708Z,2.20
2018-02-21T14:31:48.236Z,2.20
2018-02-21T14:34:15.784Z,2.20
2018-02-21T14:36:44.116Z,2.20
2018-02-21T14:39:12.528Z,2.20
2018-02-21T14:41:40.848Z,2.30
2018-02-21T14:44:08.384Z,2.30
2018-02-21T14:46:35.916Z,2.20
2018-02-21T14:49:04.251Z,2.20
2018-02-21T14:51:31.781Z,2.20
2018-02-21T14:53:59.319Z,2.20
2018-02-21T14:56:27.623Z,2.20
2018-02-21T14:58:55.180Z,2.20
2018-02-21T15:01:22.723Z,2.20
2018-02-21T15:03:51.031Z,2.20
2018-02-21T15:06:18.670Z,2.20
2018-02-21T15:08:46.980Z,2.30
2018-02-21T15:11:14.520Z,2.20
2018-02-21T15:13:42.140Z,2.30
2018-02-21T15:16:15.335Z,2.30
2018-02-21T15:18:42.905Z,2.30
2018-02-21T15:21:11.212Z,2.30
2018-02-21T15:23:38.773Z,2.20
2018-02-21T15:26:06.323Z,2.20
2018-02-21T15:28:33.879Z,2.30
2018-02-21T15:31:01.448Z,2.20
2018-02-21T15:33:28.991Z,2.20
2018-02-21T15:35:57.291Z,2.20
2018-02-21T15:38:24.851Z,2.10
2018-02-21T15:40:52.383Z,2.10
2018-02-21T15:43:20.687Z,2.10
2018-02-21T15:45:48.349Z,2.10
2018-02-21T15:48:16.524Z,2.10
2018-02-21T15:50:44.080Z,2.00
2018-02-21T15:53:11.648Z,2.00
2018-02-21T15:55:39.216Z,2.00
2018-02-21T15:58:06.749Z,1.90
2018-02-21T16:00:34.305Z,1.90
2018-02-21T16:03:01.853Z,1.90
2018-02-21T16:05:30.176Z,1.80
2018-02-21T16:07:57.717Z,1.80
2018-02-21T16:10:25.283Z,1.80
2018-02-21T16:12:52.931Z,1.80
2018-02-21T16:15:20.472Z,1.80
2018-02-21T16:17:48.879Z,1.80
2018-02-21T16:20:16.412Z,1.70
2018-02-21T16:22:44.776Z,1.80
2018-02-21T16:25:13.081Z,1.70
2018-02-21T16:27:40.652Z,1.70
2018-02-21T16:30:08.212Z,1.70
2018-02-21T16:32:35.756Z,1.70
2018-02-21T16:35:03.300Z,1.70
2018-02-21T16:37:31.621Z,1.60
2018-02-21T16:39:59.270Z,1.60
2018-02-21T16:42:26.825Z,1.60
2018-02-21T16:44:54.372Z,1.50
2018-02-21T16:47:21.928Z,1.50
2018-02-21T16:49:49.465Z,1.50
2018-02-21T16:52:17.772Z,1.40
2018-02-21T16:54:45.327Z,1.40
2018-02-21T16:57:12.861Z,1.40
2018-02-21T16:59:41.183Z,1.40
2018-02-21T17:02:08.724Z,1.30
2018-02-21T17:04:37.345Z,1.40
2018-02-21T17:07:05.689Z,1.30
2018-02-21T17:09:33.233Z,1.30
2018-02-21T17:12:01.541Z,1.30
2018-02-21T17:14:29.098Z,1.30
2018-02-21T17:16:56.652Z,1.20
2018-02-21T17:19:24.178Z,1.20
2018-02-21T17:21:52.810Z,1.20
2018-02-21T17:24:20.363Z,1.10
2018-02-21T17:26:47.895Z,1.10
2018-02-21T17:29:15.471Z,1.10
2018-02-21T17:31:43.053Z,1.10
2018-02-21T17:34:10.584Z,1.10
2018-02-21T17:36:38.137Z,1.00
2018-02-21T17:39:05.720Z,1.00
2018-02-21T17:41:35.132Z,1.00
2018-02-21T17:44:04.603Z,1.00
2018-02-21T17:46:33.599Z,1.00
2018-02-21T17:49:01.180Z,0.90
2018-02-21T17:51:28.727Z,0.90
2018-02-21T17:53:56.256Z,0.80
2018-02-21T17:56:24.680Z,0.70
2018-02-21T17:58:52.216Z,0.60
2018-02-21T18:01:19.758Z,0.70
2018-02-21T18:03:48.092Z,0.60
2018-02-21T18:06:15.629Z,0.60
2018-02-21T18:08:43.163Z,0.60
2018-02-21T18:11:11.479Z,0.70
2018-02-21T18:13:39.034Z,0.60
2018-02-21T18:16:06.691Z,0.60
2018-02-21T18:18:34.251Z,0.60
2018-02-21T18:21:01.811Z,0.70
2018-02-21T18:23:29.356Z,0.60
2018-02-21T18:25:56.931Z,0.70
2018-02-21T18:28:24.468Z,0.70
2018-02-21T18:30:52.016Z,0.70
2018-02-21T18:33:20.338Z,0.70
2018-02-21T18:35:47.884Z,0.60
2018-02-21T18:38:15.415Z,0.70
2018-02-21T18:40:43.826Z,0.60
2018-02-21T18:43:11.372Z,0.60
2018-02-21T18:45:38.904Z,0.60
2018-02-21T18:48:06.452Z,0.60
2018-02-21T18:50:33.984Z,0.60
2018-02-21T18:53:01.525Z,0.60
2018-02-21T18:55:29.096Z,0.50
2018-02-21T18:57:56.637Z,0.50
2018-02-21T19:00:24.183Z,0.50
2018-02-21T19:02:51.739Z,0.50
2018-02-21T19:05:19.300Z,0.50
2018-02-21T19:07:46.835Z,0.50
2018-02-21T19:10:15.158Z,0.40
2018-02-21T19:12:42.704Z,0.40
2018-02-21T19:15:10.240Z,0.40
2018-02-21T19:17:38.564Z,0.40
2018-02-21T19:20:06.141Z,0.40
2018-02-21T19:22:33.689Z,0.40
2018-02-21T19:25:01.243Z,0.40
2018-02-21T19:27:29.072Z,0.30
2018-02-21T19:29:57.576Z,0.30
2018-02-21T19:32:25.115Z,0.30
2018-02-21T19:34:53.391Z,0.30
2018-02-21T19:37:20.974Z,0.30
2018-02-21T19:39:48.504Z,0.20
2018-02-21T19:42:17.092Z,0.20
2018-02-21T19:44:44.657Z,0.10
2018-02-21T19:47:12.195Z,0.10
2018-02-21T19:49:40.499Z,0.10
2018-02-21T19:52:08.053Z,0.10
2018-02-21T19:54:35.593Z,0.10
2018-02-21T19:57:03.905Z,0.00
2018-02-21T19:59:31.471Z,0.00
2018-02-21T20:01:59.020Z,0.00
2018-02-21T20:04:26.575Z,-0.10
2018-02-21T20:06:56.849Z,-0.10
2018-02-21T20:09:24.483Z,-0.10
2018-02-21T20:11:53.040Z,-0.20
2018-02-21T20:14:20.597Z,-0.20
2018-02-21T20:16:48.133Z,-0.30
2018-02-21T20:19:17.374Z,-0.30
2018-02-21T20:21:44.923Z,-0.30
2018-02-21T20:24:12.457Z,-0.30
2018-02-21T20:26:40.868Z,-0.40
2018-02-21T20:29:08.411Z,-0.40
2018-02-21T20:31:35.959Z,-0.40
2018-02-21T20:34:04.296Z,-0.50
2018-02-21T20:36:32.748Z,-0.50
2018-02-21T20:39:00.286Z,-0.50
2018-02-21T20:41:27.852Z,-0.50
2018-02-21T20:43:55.873Z,-0.50
2018-02-21T20:46:23.448Z,-0.50
2018-02-21T20:48:51.876Z,-0.60
2018-02-21T20:51:19.436Z,-0.60
2018-02-21T20:53:46.996Z,-0.60
2018-02-21T20:56:14.657Z,-0.60
2018-02-21T20:58:42.221Z,-0.60
2018-02-21T21:01:10.039Z,-0.60
2018-02-21T21:03:39.809Z,-0.60
2018-02-21T21:06:10.853Z,-0.70
2018-02-21T21:08:40.972Z,-0.70
2018-02-21T21:11:08.536Z,-0.70
2018-02-21T21:13:36.097Z,-0.70
2018-02-21T21:16:04.530Z,-0.70
2018-02-21T21:18:32.472Z,-0.70
2018-02-21T21:21:00.003Z,-0.80
2018-02-21T21:23:27.572Z,-0.80
2018-02-21T21:25:55.148Z,-0.80
2018-02-21T21:28:22.685Z,-0.90
2018-02-21T21:30:50.223Z,-0.90
2018-02-21T21:33:17.779Z,-0.90
2018-02-21T21:35:45.313Z,-1.00
2018-02-21T21:38:13.633Z,-1.00
2018-02-21T21:40:41.172Z,-1.00
2018-02-21T21:43:08.754Z,-1.00
2018-02-21T21:45:36.396Z,-1.00
2018-02-21T21:48:03.923Z,-1.10
2018-02-21T21:50:32.230Z,-1.10
2018-02-21T21:52:59.787Z,-1.10
2018-02-21T21:55:27.326Z,-1.10
2018-02-21T21:57:55.626Z,-1.10
2018-02-21T22:00:23.186Z,-1.10
2018-02-21T22:02:50.735Z,-1.10
2018-02-21T22:05:18.307Z,-1.10
2018-02-21T22:07:46.614Z,-1.20
2018-02-21T22:10:14.163Z,-1.20
2018-02-21T22:12:41.736Z,-1.20
2018-02-21T22:15:10.088Z,-1.20
2018-02-21T22:17:37.639Z,-1.30
2018-02-21T22:20:05.170Z,-1.30
2018-02-21T22:22:33.479Z,-1.40
2018-02-21T22:25:01.023Z,-1.40
2018-02-21T22:27:28.593Z,-1.40
2018-02-21T22:29:56.135Z,-1.40
2018-02-21T22:32:24.431Z,-1.50
2018-02-21T22:34:51.976Z,-1.50
2018-02-21T22:37:20.543Z,-1.50
2018-02-21T22:39:48.855Z,-1.50
2018-02-21T22:42:16.514Z,-1.50
2018-02-21T22:44:44.061Z,-1.60
2018-02-21T22:47:11.607Z,-1.60
2018-02-21T22:49:39.929Z,-1.70
2018-02-21T22:52:07.572Z,-1.70
2018-02-21T22:54:35.129Z,-1.70
2018-02-21T22:57:02.769Z,-1.80
2018-02-21T22:59:31.171Z,-1.90
2018-02-21T23:01:58.711Z,-1.90
2018-02-21T23:04:26.271Z,-1.80
2018-02-21T23:06:53.822Z,-1.80
2018-02-21T23:09:22.132Z,-1.80
2018-02-21T23:11:49.667Z,-1.90
2018-02-21T23:14:17.227Z,-1.90
2018-02-21T23:16:44.759Z,-1.80
2018-02-21T23:19:12.313Z,-1.80
2018-02-21T23:21:39.868Z,-1.80
2018-02-21T23:24:08.193Z,-1.80
2018-02-21T23:26:35.732Z,-1.80
2018-02-21T23:29:04.140Z,-1.90
2018-02-21T23:31:31.676Z,-1.90
2018-02-21T23:33:59.237Z,-1.90
2018-02-21T23:36:26.783Z,-1.90
2018-02-21T23:38:55.111Z,-1.90
2018-02-21T23:41:22.667Z,-1.90
2018-02-21T23:43:50.231Z,-2.00
2018-02-21T23:46:17.784Z,-2.00
2018-02-21T23:48:45.315Z,-2.00
2018-02-21T23:51:12.872Z,-2.00
2018-02-21T23:53:40.423Z,-2.00
2018-02-21T23:56:08.744Z,-2.00
2018-02-21T23:58:36.311Z,-2.00
